Hauptseite
METAR-TAF:

METAR-TAF

Flughäfen :

Bohrplattform

Sleipner, Norwegen

Breite: 58-22-00N, Länge: 001-54-25E, Höhe: 50 m

Beobachtung

Neuester Wetterbericht von vor 18 Minuten, um 04:20 UTC
Wind 3 kt aus West/Südwest, variierte zwischen Süd/Südwest und West/Nordwest
Temperatur 11°C
Luftfeuchtigkeit 66%
Luftdruck 1015 hPa
Sichtweite 10 km oder mehr

METAR: ENSL 090420Z AUTO 24003KT 210V290 9999NDV OVC050/// 11/05 Q1015 W10/S3

Zeit: 06:38 (04:38 UTC)


TAF: fehlend

Wetterbeobachtungen und Prognosen von mehr als 4000 Flughäfen (METAR und TAF Bericht).

Die verfügbaren Stationen werden durch gelbe und rote Markierungen auf der Karte dargestellt.

Führen Sie die Maus auf sie, um den Namen der Station zu sehen.

Darauf klicken, um die Beobachtung von Wetterbeobachtungen und Prognosen zu sehen.

Um die Karte zu ändern : klicken Sie auf den grünen Tasten mit einem schwarzen Kreuz Zum Vergrößern, auf den grünen Button mit einem Gedankenstrich zu verkleinern, oder auf die grünen Pfeile für benachbarte Karten.


METAR-TAF: